Latest Coastal Weather Observations for Cape Byron

IDN60701

Issued at 12:31 pm EST Thursday 18 July 2019 (issued every 10 minutes, with the page automatically refreshed every 10 minutes)

About coastal observations | Map of coastal stations | Coastal observations for NSW | Marine services | Other Formats
Station Details ID: 058216 Name: CAPE BYRON AWS Lat: -28.64 Lon: 153.64 Height: 95.0 m
Data from the previous 72 hours. | See also: Recent months at Cape Byron
Date/Time
EST
Wind Sea
Height
m
Swell Vis
km
Cloud Weather Temp
°C
Press
hPa
Rain since
9am
mm
Dir  Spd
kts
Gust
kts
Height
m
Period
s
Dir
18/12:30pm SW 8 12 - - - - - - - 17.7 1015.2 0.0
18/12:00pm SW 12 16 - - - - - - - 17.0 1015.5 0.0
18/11:30am SW 11 17 - - - - - - - 16.6 1015.9 0.0
18/11:00am WSW 11 17 - - - - - - - 16.0 1016.1 0.0
18/10:30am WSW 13 21 - - - - - - - 15.7 1016.6 0.0
18/10:00am SW 12 18 - - - - - - - 15.3 1016.9 0.0
18/09:30am WSW 12 19 - - - - - - - 14.7 1016.9 0.0
18/09:00am WSW 16 21 - - - - - - - 14.0 1016.7 0.0
18/08:30am WSW 14 21 - - - - - - - 13.3 1016.4 0.0
18/08:00am W 10 17 - - - - - - - 12.3 1016.0 0.0
18/07:30am W 15 21 - - - - - - - 12.6 1015.6 0.0
18/07:00am W 11 16 - - - - - - - 12.4 1015.2 0.0
18/06:30am W 14 20 - - - - - - - 13.2 1014.8 0.0
18/06:00am W 15 20 - - - - - - - 13.2 1014.5 0.0
18/05:30am W 18 25 - - - - - - - 13.7 1014.5 0.0
18/05:00am W 19 25 - - - - - - - 13.0 1014.1 0.0
18/04:30am W 19 23 - - - - - - - 13.6 1014.0 0.0
18/04:00am W 19 24 - - - - - - - 13.5 1013.9 0.0
18/03:30am W 17 21 - - - - - - - 13.7 1014.1 0.0
18/03:00am W 17 22 - - - - - - - 13.4 1014.3 0.0
18/02:30am W 17 22 - - - - - - - 13.5 1014.5 0.0
18/02:00am WNW 14 18 - - - - - - - 14.0 1014.8 0.0
18/01:30am WNW 12 16 - - - - - - - 13.9 1015.0 0.0
18/01:00am WNW 12 16 - - - - - - - 14.9 1015.3 0.0
18/12:30am WNW 7 11 - - - - - - - 14.7 1015.6 0.0
18/12:00am WNW 8 9 - - - - - - - 14.4 1015.8 0.0
 
Date/Time
EST
Wind Sea
Height
m
Swell Vis
km
Cloud Weather Temp
°C
Press
hPa
Rain since
9am
mm
Dir  Spd
kts
Gust
kts
Height
m
Period
s
Dir
17/11:30pm N 5 8 - - - - - - - 15.8 1016.0 0.0
17/11:00pm NNW 5 8 - - - - - - - 14.9 1016.2 0.0
17/10:30pm NW 4 7 - - - - - - - 14.4 1016.4 0.0
17/10:00pm NW 5 9 - - - - - - - 15.2 1016.4 0.0
17/09:30pm NNW 5 8 - - - - - - - 15.8 1016.4 0.0
17/09:00pm N 6 9 - - - - - - - 16.9 1016.5 0.0
17/08:30pm NNW 7 14 - - - - - - - 17.3 1016.5 0.0
17/08:00pm NNW 6 11 - - - - - - - 17.5 1016.4 0.0
17/07:30pm NNW 7 11 - - - - - - - 17.6 1016.4 0.0
17/07:00pm NNW 7 12 - - - - - - - 18.2 1016.4 0.0
17/06:30pm N 12 17 - - - - - - - 18.4 1016.3 0.0
17/06:00pm N 13 20 - - - - - - - 18.4 1016.1 0.0
17/05:30pm NNE 12 19 - - - - - - - 18.4 1015.9 0.0
17/05:00pm NNE 10 15 - - - - - - - 18.3 1016.0 0.0
17/04:30pm NNE 10 14 - - - - - - - 18.5 1016.0 0.0
17/04:00pm NE 11 15 - - - - - - - 18.9 1016.1 0.0
17/03:30pm NE 11 15 - - - - - - - 19.1 1016.3 0.0
17/03:00pm ENE 10 14 - - - - - - - 19.7 1016.4 0.0
17/02:30pm ENE 10 13 - - - - - - - 20.1 1016.4 0.0
17/02:00pm ENE 8 9 - - - - - - - 20.9 1016.6 0.0
17/01:30pm ENE 7 8 - - - - - - - 20.3 1016.7 0.0
17/01:00pm ENE 5 6 - - - - - - - 20.6 1017.2 0.0
17/12:30pm E 6 7 - - - - - - - 20.2 1017.6 0.0
17/12:00pm ESE 4 6 - - - - - - - 19.7 1018.1 0.0
17/11:30am SSW 4 6 - - - - - - - 18.6 1018.6 0.0
17/11:00am SW 5 7 - - - - - - - 18.1 1018.9 0.0
17/10:30am SW 7 9 - - - - - - - 17.0 1019.4 0.0
17/10:00am WSW 9 13 - - - - - - - 16.1 1019.7 0.0
17/09:30am WSW 9 12 - - - - - - - 15.6 1019.9 0.0
17/09:00am WSW 9 11 - - - - - - - 14.9 1019.8 0.0
17/08:30am WSW 11 15 - - - - - - - 14.0 1019.6 0.0
17/08:00am WSW 13 15 - - - - - - - 13.4 1019.5 0.0
17/07:30am WSW 14 17 - - - - - - - 13.2 1019.2 0.0
17/07:00am WSW 15 19 - - - - - - - 12.2 1018.9 0.0
17/06:30am WSW 15 20 - - - - - - - 12.3 1018.5 0.0
17/06:00am WSW 15 18 - - - - - - - 12.8 1018.4 0.0
17/05:30am WSW 14 17 - - - - - - - 13.2 1018.2 0.0
17/05:00am WSW 12 15 - - - - - - - 13.7 1018.0 0.0
17/04:30am WSW 14 17 - - - - - - - 13.4 1017.8 0.0
17/04:00am WSW 14 17 - - - - - - - 13.6 1018.0 0.0
17/03:30am WSW 16 20 - - - - - - - 13.3 1017.9 0.0
17/03:00am WSW 15 19 - - - - - - - 13.2 1017.9 0.0
17/02:30am WSW 15 19 - - - - - - - 13.8 1018.0 0.0
17/02:00am WSW 15 19 - - - - - - - 14.3 1018.1 0.0
17/01:30am WSW 12 16 - - - - - - - 15.4 1018.1 0.0
17/01:00am WSW 8 9 - - - - - - - 16.0 1018.3 0.0
17/12:30am SSW 4 5 - - - - - - - 16.7 1018.3 0.0
17/12:00am CALM 0 0 - - - - - - - 17.1 1018.5 0.0
 
Date/Time
EST
Wind Sea
Height
m
Swell Vis
km
Cloud Weather Temp
°C
Press
hPa
Rain since
9am
mm
Dir  Spd
kts
Gust
kts
Height
m
Period
s
Dir
16/11:30pm CALM 0 0 - - - - - - - 16.7 1018.6 0.0
16/11:00pm N 3 3 - - - - - - - 16.4 1018.7 0.0
16/10:30pm NNE 3 3 - - - - - - - 17.0 1018.8 0.0
16/10:00pm NE 3 4 - - - - - - - 17.7 1018.8 0.0
16/09:30pm N 3 3 - - - - - - - 16.3 1018.7 0.0
16/09:00pm NE 5 6 - - - - - - - 16.8 1018.7 0.0
16/08:30pm ENE 4 5 - - - - - - - 16.7 1018.7 0.0
16/08:00pm NE 6 7 - - - - - - - 16.8 1018.6 0.0
16/07:30pm NNE 4 5 - - - - - - - 17.6 1018.4 0.0
16/07:00pm NNE 4 5 - - - - - - - 17.5 1018.3 0.0
16/06:30pm N 5 6 - - - - - - - 17.3 1018.3 0.0
16/06:00pm NE 3 4 - - - - - - - 17.0 1017.8 0.0
16/05:30pm E 4 6 - - - - - - - 16.5 1017.4 0.0
16/05:00pm E 6 8 - - - - - - - 16.9 1017.2 0.0
16/04:30pm E 6 8 - - - - - - - 17.3 1017.2 0.0
16/04:00pm E 5 7 - - - - - - - 18.4 1017.4 0.0
16/03:30pm E 4 6 - - - - - - - 19.2 1017.2 0.0
16/03:00pm E 5 7 - - - - - - - 19.2 1017.1 0.0
16/02:30pm ENE 5 6 - - - - - - - 19.3 1016.9 0.0
16/02:00pm NE 6 8 - - - - - - - 19.2 1017.1 0.0
16/01:30pm NNE 4 6 - - - - - - - 19.2 1017.2 0.0
16/01:00pm NNE 5 7 - - - - - - - 19.6 1017.5 0.0
16/12:30pm NNE 6 8 - - - - - - - 18.8 1018.0 0.0
16/12:00pm N 7 11 - - - - - - - 18.4 1018.5 0.0
16/11:30am N 6 10 - - - - - - - 18.5 1019.1 0.0
16/11:00am N 5 7 - - - - - - - 17.9 1019.6 0.0
16/10:30am WNW 4 6 - - - - - - - 16.8 1019.9 0.0
16/10:00am WSW 7 9 - - - - - - - 15.3 1020.1 0.0
16/09:30am WSW 10 13 - - - - - - - 14.2 1020.2 0.0
16/09:00am WSW 10 13 - - - - - - - 13.4 1020.1 0.0
16/08:30am WSW 12 15 - - - - - - - 13.0 1020.0 0.0
16/08:00am WSW 13 16 - - - - - - - 12.7 1020.1 0.0
16/07:30am WSW 13 16 - - - - - - - 12.8 1019.9 0.0
16/07:00am WSW 14 17 - - - - - - - 12.6 1019.8 0.0
16/06:30am W 14 16 - - - - - - - 12.2 1019.6 0.0
16/06:00am W 15 18 - - - - - - - 12.3 1019.1 0.0
16/05:30am W 16 19 - - - - - - - 12.3 1019.0 0.0
16/05:00am W 16 20 - - - - - - - 12.0 1018.8 0.0
16/04:30am W 15 20 - - - - - - - 11.6 1018.8 0.0
16/04:00am WSW 16 20 - - - - - - - 11.9 1018.7 0.0
16/03:30am WSW 16 21 - - - - - - - 11.6 1018.8 0.0
16/03:00am WSW 17 21 - - - - - - - 11.6 1018.8 0.0
16/02:30am WSW 16 20 - - - - - - - 11.5 1018.8 0.0
16/02:00am WSW 16 21 - - - - - - - 11.7 1018.9 0.0
16/01:30am WSW 17 20 - - - - - - - 11.7 1019.0 0.0
16/01:00am WSW 17 21 - - - - - - - 11.5 1019.0 0.0
16/12:30am WSW 17 22 - - - - - - - 11.4 1019.2 0.0
16/12:00am SW 19 23 - - - - - - - 11.7 1019.2 0.0
 
Date/Time
EST
Wind Sea
Height
m
Swell Vis
km
Cloud Weather Temp
°C
Press
hPa
Rain since
9am
mm
Dir  Spd
kts
Gust
kts
Height
m
Period
s
Dir
15/11:30pm SW 19 23 - - - - - - - 12.2 1019.2 0.0
15/11:00pm SW 17 21 - - - - - - - 12.4 1019.4 0.0
15/10:30pm SW 16 19 - - - - - - - 13.5 1019.7 0.0
15/10:00pm SW 17 22 - - - - - - - 14.0 1019.4 0.0
15/09:30pm SW 16 20 - - - - - - - 13.7 1019.4 0.0
15/09:00pm SW 15 18 - - - - - - - 14.2 1019.4 0.0
15/08:30pm SW 13 15 - - - - - - - 14.9 1019.2 0.0
15/08:00pm SW 10 11 - - - - - - - 14.6 1019.2 0.0
15/07:30pm SSW 9 13 - - - - - - - 14.5 1018.8 0.0
15/07:00pm SSW 9 12 - - - - - - - 15.9 1018.8 0.0
15/06:30pm S 13 16 - - - - - - - 16.6 1018.2 0.0
15/06:00pm SSW 11 15 - - - - - - - 16.1 1017.6 0.0
15/05:30pm SW 11 13 - - - - - - - 15.2 1017.4 0.0
15/05:00pm SW 10 14 - - - - - - - 15.9 1017.1 0.0
15/04:30pm SW 11 15 - - - - - - - 16.3 1016.5 0.0
15/04:00pm SW 9 11 - - - - - - - 16.9 1016.3 0.0
15/03:30pm SW 11 15 - - - - - - - 17.2 1016.0 0.0
15/03:00pm SW 15 20 - - - - - - - 17.2 1015.7 0.0
15/02:30pm SW 13 18 - - - - - - - 17.3 1015.5 0.0
15/02:00pm WSW 13 21 - - - - - - - 17.3 1015.3 0.0
15/01:47pm WSW 15 25 - - - - - - - 17.0 1015.3 0.0
15/01:30pm SW 18 25 - - - - - - - 16.7 1015.2 0.0
15/01:03pm WSW 17 27 - - - - - - - 16.2 1015.1 0.0
15/01:00pm WSW 18 27 - - - - - - - 16.3 1015.1 0.0

Other formats

Comma delimited format used in spreadsheet applications
http://www.bom.gov.au/fwo/IDN60701/IDN60701.94599.axf

JavaScript Object Notation format (JSON) in row-major order
http://www.bom.gov.au/fwo/IDN60701/IDN60701.94599.json

Data quality

Most of these data are generated automatically and are frequently updated. Quality checks on data are not normally performed. It is possible for incorrect values to appear. Refer to information at About Latest Weather Observations and please check the disclaimer before using these data.